Time;durP1;ratioP1;P1;durP2;ratioP2;P2;SDS_P1;SDS_P2;PMS_P1;PMS_P2;Temp;Humidity;BMP_temperature;BMP_pressure;BME280_temperature;BME280_humidity;BME280_pressure;Samples;Min_cycle;Max_cycle;Signal;HPM_P1;HPM_P2
2024/02/17 00:00:26;;;;;;;19.80;7.87;;;12.60;98.00;;;;;;5051843;28;20468;-88
2024/02/17 00:02:54;;;;;;;12.53;7.00;;;12.60;98.00;;;;;;5051957;28;20460;-88
2024/02/17 00:05:21;;;;;;;18.07;7.53;;;12.60;98.00;;;;;;5052195;28;20841;-88
2024/02/17 00:07:48;;;;;;;16.30;8.17;;;12.60;98.00;;;;;;5051867;28;20466;-88
2024/02/17 00:10:15;;;;;;;18.87;8.70;;;12.60;98.00;;;;;;5055492;28;20452;-88
2024/02/17 00:12:43;;;;;;;15.57;7.77;;;12.70;98.00;;;;;;5055820;28;20511;-88
2024/02/17 00:15:12;;;;;;;16.33;8.00;;;12.60;98.00;;;;;;5055958;28;20490;-88
2024/02/17 00:17:39;;;;;;;14.63;7.20;;;12.60;98.00;;;;;;5056202;28;20579;-88
2024/02/17 00:20:09;;;;;;;15.90;8.30;;;12.80;98.00;;;;;;5056048;28;20461;-87
2024/02/17 00:22:36;;;;;;;17.93;9.10;;;12.80;98.00;;;;;;5055364;28;20453;-88
2024/02/17 00:25:03;;;;;;;19.60;9.27;;;12.90;98.00;;;;;;5055840;28;20472;-88
2024/02/17 00:27:31;;;;;;;19.70;9.90;;;12.90;98.00;;;;;;5055253;28;20461;-88
2024/02/17 00:29:58;;;;;;;14.53;8.43;;;12.90;98.00;;;;;;5055817;28;20523;-88
2024/02/17 00:32:26;;;;;;;16.70;8.27;;;12.80;98.00;;;;;;5055139;28;20489;-88
2024/02/17 00:34:53;;;;;;;18.20;8.63;;;12.80;98.00;;;;;;5055584;28;20480;-88
2024/02/17 00:37:24;;;;;;;16.90;8.27;;;12.80;98.00;;;;;;5055449;28;20949;-88
2024/02/17 00:39:51;;;;;;;20.70;9.40;;;12.70;98.00;;;;;;5055772;28;20448;-89
2024/02/17 00:42:18;;;;;;;17.80;8.10;;;12.70;98.00;;;;;;5054678;28;20475;-89
2024/02/17 00:44:45;;;;;;;24.57;10.10;;;12.60;98.00;;;;;;5055372;28;21019;-90
2024/02/17 00:47:12;;;;;;;19.63;8.70;;;12.60;98.00;;;;;;5055277;28;20457;-88
2024/02/17 00:49:39;;;;;;;17.80;8.13;;;12.60;98.00;;;;;;5055540;28;20460;-90
2024/02/17 00:52:06;;;;;;;21.30;10.17;;;12.60;98.00;;;;;;5054503;28;20461;-89
2024/02/17 00:54:35;;;;;;;22.70;9.93;;;12.60;98.00;;;;;;5055219;28;20467;-88
2024/02/17 00:57:02;;;;;;;24.83;11.70;;;12.50;98.00;;;;;;5054923;28;20465;-89
2024/02/17 00:59:29;;;;;;;20.03;10.10;;;12.50;98.00;;;;;;5054968;28;20465;-89
2024/02/17 01:01:57;;;;;;;20.60;8.63;;;12.50;98.00;;;;;;5054744;28;20449;-89
2024/02/17 01:04:25;;;;;;;22.53;10.53;;;12.70;98.00;;;;;;5055084;28;20489;-90
2024/02/17 01:06:52;;;;;;;17.33;9.50;;;12.80;98.00;;;;;;5055448;28;20453;-89
2024/02/17 01:09:19;;;;;;;17.77;8.90;;;12.80;98.00;;;;;;5060582;28;20471;-87
2024/02/17 01:11:48;;;;;;;24.60;9.90;;;12.80;98.00;;;;;;5079602;28;20453;-87
2024/02/17 01:14:15;;;;;;;22.70;8.87;;;12.90;98.00;;;;;;5063469;28;20844;-89
2024/02/17 01:16:43;;;;;;;18.67;9.30;;;12.90;98.00;;;;;;5054522;28;20481;-88
2024/02/17 01:19:10;;;;;;;20.10;9.30;;;13.10;98.00;;;;;;5055131;28;20458;-89
2024/02/17 01:21:37;;;;;;;19.13;9.90;;;13.10;98.00;;;;;;5053242;28;20484;-89
2024/02/17 01:24:05;;;;;;;16.40;9.20;;;13.10;98.00;;;;;;5054809;28;20472;-88
2024/02/17 01:26:32;;;;;;;19.47;9.00;;;13.20;98.00;;;;;;5054506;28;20939;-88
2024/02/17 01:29:01;;;;;;;21.37;9.07;;;13.20;98.00;;;;;;5054402;28;20456;-89
2024/02/17 01:31:28;;;;;;;18.53;8.60;;;13.10;98.00;;;;;;5054193;28;21007;-89
2024/02/17 01:33:55;;;;;;;14.80;7.60;;;13.00;98.00;;;;;;5054472;28;20495;-89
2024/02/17 01:36:22;;;;;;;18.60;8.20;;;12.90;98.00;;;;;;5053922;28;20852;-88
2024/02/17 01:38:49;;;;;;;18.70;9.27;;;13.00;98.00;;;;;;5054238;28;20511;-89
2024/02/17 01:41:16;;;;;;;17.77;8.70;;;13.10;98.00;;;;;;5054070;28;20458;-88
2024/02/17 01:43:43;;;;;;;17.47;8.30;;;13.10;98.00;;;;;;5054091;28;20508;-89
2024/02/17 01:46:13;;;;;;;17.90;8.40;;;13.00;98.00;;;;;;5054057;28;20886;-89
2024/02/17 01:48:40;;;;;;;20.80;8.80;;;12.90;98.00;;;;;;5054363;28;20459;-89
2024/02/17 01:51:11;;;;;;;21.60;9.17;;;12.90;98.00;;;;;;5052624;28;20464;-89
2024/02/17 01:53:39;;;;;;;16.70;8.77;;;12.80;98.00;;;;;;5054372;28;20473;-89
2024/02/17 01:56:08;;;;;;;22.43;9.83;;;12.80;98.00;;;;;;5053993;28;20485;-89
2024/02/17 01:58:36;;;;;;;19.10;8.83;;;12.80;98.00;;;;;;5054052;28;20462;-89
2024/02/17 02:01:03;;;;;;;22.37;9.70;;;12.70;98.00;;;;;;5053709;28;20961;-89
2024/02/17 02:03:35;;;;;;;20.03;9.77;;;12.70;98.00;;;;;;5053796;28;20441;-89
2024/02/17 02:06:03;;;;;;;23.10;9.63;;;12.80;98.00;;;;;;5051507;28;20485;-90
2024/02/17 02:08:30;;;;;;;17.90;9.33;;;12.80;98.00;;;;;;5053997;28;20979;-89
2024/02/17 02:11:00;;;;;;;19.73;9.73;;;12.70;98.00;;;;;;5053701;28;20449;-90
2024/02/17 02:13:27;;;;;;;20.23;9.40;;;12.70;98.00;;;;;;5053178;28;20484;-89
2024/02/17 02:15:54;;;;;;;22.40;10.07;;;12.70;98.00;;;;;;5053223;28;20484;-88
2024/02/17 02:18:21;;;;;;;17.80;9.60;;;12.80;98.00;;;;;;5053460;28;20462;-88
2024/02/17 02:20:50;;;;;;;16.50;9.47;;;12.80;98.00;;;;;;5053603;28;20462;-89
2024/02/17 02:23:17;;;;;;;19.00;9.90;;;12.80;98.00;;;;;;5053044;28;20494;-90
2024/02/17 02:25:51;;;;;;;17.47;9.30;;;12.80;98.00;;;;;;5053568;28;20481;-90
2024/02/17 02:28:18;;;;;;;18.97;9.13;;;12.80;98.00;;;;;;5053163;28;20456;-89
2024/02/17 02:30:46;;;;;;;21.90;9.60;;;12.70;98.00;;;;;;5053555;28;20448;-89
2024/02/17 02:33:13;;;;;;;18.67;9.20;;;12.70;98.00;;;;;;5052687;28;20590;-89
2024/02/17 02:35:40;;;;;;;19.43;10.10;;;12.90;98.00;;;;;;5053564;28;20478;-88
2024/02/17 02:38:07;;;;;;;21.07;9.70;;;13.10;98.00;;;;;;5053237;28;20817;-89
2024/02/17 02:40:34;;;;;;;18.60;9.30;;;12.90;98.00;;;;;;5053230;28;20551;-89
2024/02/17 02:43:03;;;;;;;16.03;8.30;;;12.90;98.00;;;;;;5052483;28;20476;-89
2024/02/17 02:45:31;;;;;;;13.47;6.43;;;12.80;98.00;;;;;;5053137;28;21000;-88
2024/02/17 02:47:58;;;;;;;18.50;9.07;;;12.90;98.00;;;;;;5052917;28;20465;-88
2024/02/17 02:50:25;;;;;;;15.00;7.70;;;12.80;98.00;;;;;;5052993;28;20960;-89
2024/02/17 02:52:53;;;;;;;18.07;7.80;;;12.90;98.00;;;;;;5052583;28;20485;-89
2024/02/17 02:55:20;;;;;;;14.07;6.97;;;12.80;98.00;;;;;;5053209;28;20483;-89
2024/02/17 02:57:47;;;;;;;14.30;7.17;;;12.80;98.00;;;;;;5052874;28;20937;-88
2024/02/17 03:00:17;;;;;;;12.97;7.10;;;12.80;98.00;;;;;;5053229;28;20464;-89
2024/02/17 03:02:44;;;;;;;15.07;6.87;;;12.70;98.00;;;;;;5052595;28;20828;-89
2024/02/17 03:05:11;;;;;;;8.57;4.93;;;12.70;98.00;;;;;;5052908;28;20474;-89
2024/02/17 03:07:38;;;;;;;9.00;5.07;;;12.70;98.00;;;;;;5052635;28;20837;-88
2024/02/17 03:10:07;;;;;;;8.17;4.63;;;12.60;98.00;;;;;;5052714;28;20456;-89
2024/02/17 03:12:34;;;;;;;10.47;5.27;;;12.60;98.00;;;;;;5051930;28;20455;-89
2024/02/17 03:15:01;;;;;;;7.47;4.20;;;12.60;98.00;;;;;;5052772;28;20473;-89
2024/02/17 03:17:30;;;;;;;6.47;4.13;;;12.60;98.00;;;;;;5052283;28;20516;-89
2024/02/17 03:19:58;;;;;;;8.80;4.70;;;12.70;98.00;;;;;;5052740;28;20454;-88
2024/02/17 03:22:26;;;;;;;6.20;4.03;;;12.70;98.00;;;;;;5052377;28;20833;-88
2024/02/17 03:24:53;;;;;;;6.50;3.60;;;12.60;98.00;;;;;;5052516;28;20483;-88
2024/02/17 03:27:20;;;;;;;7.10;3.73;;;12.60;98.00;;;;;;5052386;28;20466;-89
2024/02/17 03:29:47;;;;;;;7.30;3.70;;;12.60;98.00;;;;;;5052930;28;20445;-89
2024/02/17 03:32:14;;;;;;;7.00;3.90;;;12.50;98.00;;;;;;5052294;28;20449;-89
2024/02/17 03:34:43;;;;;;;6.27;3.60;;;12.40;98.00;;;;;;5052600;28;20486;-89
2024/02/17 03:37:10;;;;;;;7.50;4.17;;;12.40;98.00;;;;;;5062674;28;20443;-87
2024/02/17 03:39:38;;;;;;;7.60;4.30;;;12.50;98.00;;;;;;5076754;28;20458;-88
2024/02/17 03:42:06;;;;;;;8.50;4.60;;;12.50;98.00;;;;;;5055413;28;20463;-88
2024/02/17 03:44:33;;;;;;;6.70;4.13;;;12.50;98.00;;;;;;5051877;28;20441;-88
2024/02/17 03:47:00;;;;;;;9.70;4.77;;;12.60;98.00;;;;;;5052141;28;20459;-89
2024/02/17 03:49:27;;;;;;;9.30;4.13;;;12.60;98.00;;;;;;5052599;28;20465;-88
2024/02/17 03:51:56;;;;;;;7.40;4.27;;;12.40;98.00;;;;;;5051842;28;20473;-89
2024/02/17 03:54:26;;;;;;;7.90;4.27;;;12.30;98.00;;;;;;5052068;28;20495;-89
2024/02/17 03:56:53;;;;;;;7.17;4.00;;;12.30;98.00;;;;;;5051763;28;20479;-88
2024/02/17 03:59:20;;;;;;;8.87;4.97;;;12.40;98.00;;;;;;5052461;28;20455;-88
2024/02/17 04:01:47;;;;;;;6.87;3.93;;;12.40;98.00;;;;;;5051782;28;20455;-89
2024/02/17 04:04:14;;;;;;;11.43;4.90;;;12.30;98.00;;;;;;5052128;28;20460;-89
2024/02/17 04:06:43;;;;;;;6.80;4.13;;;12.30;98.00;;;;;;5051962;28;20483;-89
2024/02/17 04:09:11;;;;;;;9.40;5.00;;;12.40;98.00;;;;;;5051978;28;20552;-90
2024/02/17 04:11:38;;;;;;;9.93;4.67;;;12.40;98.00;;;;;;5051869;28;20463;-90
2024/02/17 04:14:05;;;;;;;8.40;4.40;;;12.50;98.00;;;;;;5051899;28;21041;-89
2024/02/17 04:19:13;;;;;;;10.37;4.90;;;12.50;98.00;;;;;;5052220;28;20628;-88
2024/02/17 04:21:41;;;;;;;8.73;4.63;;;12.40;98.00;;;;;;5051240;28;20456;-90
2024/02/17 04:24:08;;;;;;;10.97;5.27;;;12.40;98.00;;;;;;5051756;28;20484;-88
2024/02/17 04:26:37;;;;;;;13.73;5.77;;;12.30;98.00;;;;;;5051555;28;20504;-89
2024/02/17 04:29:04;;;;;;;11.07;5.07;;;12.20;98.00;;;;;;5051885;28;20824;-88
2024/02/17 04:31:31;;;;;;;10.30;5.03;;;12.10;98.00;;;;;;5051519;28;20831;-89
2024/02/17 04:33:58;;;;;;;9.80;5.00;;;11.90;98.00;;;;;;5051979;28;20488;-89
2024/02/17 04:36:25;;;;;;;12.00;5.43;;;11.90;98.00;;;;;;5051553;28;21019;-89
2024/02/17 04:38:53;;;;;;;7.93;4.47;;;12.10;98.00;;;;;;5051551;28;20462;-89
2024/02/17 04:41:20;;;;;;;10.67;5.10;;;12.00;98.00;;;;;;5051075;28;20457;-88
2024/02/17 04:43:48;;;;;;;11.20;5.00;;;12.10;98.00;;;;;;5051608;28;20464;-89
2024/02/17 04:46:15;;;;;;;12.13;4.80;;;12.00;98.00;;;;;;5051409;28;20476;-89
2024/02/17 04:48:43;;;;;;;10.37;4.63;;;11.90;98.00;;;;;;5051524;28;20468;-89
2024/02/17 04:51:10;;;;;;;10.63;4.70;;;11.90;98.00;;;;;;5051144;28;20522;-89
2024/02/17 04:53:37;;;;;;;10.63;5.00;;;11.90;98.00;;;;;;5051717;28;20527;-89
2024/02/17 04:56:05;;;;;;;9.77;4.47;;;11.90;98.00;;;;;;5054345;28;20480;-89
2024/02/17 04:58:32;;;;;;;8.93;4.27;;;11.90;98.00;;;;;;5055155;28;20465;-88
2024/02/17 05:01:01;;;;;;;9.00;4.13;;;11.90;98.00;;;;;;5054154;28;20960;-89
2024/02/17 05:03:28;;;;;;;9.30;4.53;;;11.80;98.00;;;;;;5055433;28;20813;-89
2024/02/17 05:05:55;;;;;;;11.03;4.87;;;11.90;98.00;;;;;;5054761;28;21014;-88
2024/02/17 05:08:22;;;;;;;13.13;5.33;;;11.90;98.00;;;;;;5055193;28;20460;-89
2024/02/17 05:10:49;;;;;;;9.17;4.77;;;11.80;98.00;;;;;;5055045;28;20974;-88
2024/02/17 05:13:16;;;;;;;10.03;5.30;;;11.80;98.00;;;;;;5054179;28;20917;-89
2024/02/17 05:15:44;;;;;;;11.80;4.77;;;11.80;98.00;;;;;;5054573;28;20478;-89
2024/02/17 05:18:13;;;;;;;10.90;5.30;;;11.80;98.00;;;;;;5054558;28;20468;-89
2024/02/17 05:20:40;;;;;;;8.57;4.70;;;11.80;98.00;;;;;;5054668;28;20452;-90
2024/02/17 05:23:07;;;;;;;11.00;5.03;;;11.70;98.00;;;;;;5054214;28;20806;-88
2024/02/17 05:25:35;;;;;;;12.20;5.47;;;11.80;98.00;;;;;;5054881;28;20509;-89
2024/02/17 05:28:02;;;;;;;10.27;5.10;;;12.00;98.00;;;;;;5054558;28;20986;-89
2024/02/17 05:30:29;;;;;;;9.67;5.30;;;12.10;98.00;;;;;;5054889;28;20464;-89
2024/02/17 05:32:56;;;;;;;12.57;6.20;;;12.00;98.00;;;;;;5054407;28;20943;-88
2024/02/17 05:35:24;;;;;;;10.70;5.77;;;12.10;98.00;;;;;;5054274;28;20493;-89
2024/02/17 05:37:51;;;;;;;11.77;5.47;;;12.10;98.00;;;;;;5054134;28;20534;-88
2024/02/17 05:40:19;;;;;;;12.10;5.70;;;12.00;98.00;;;;;;5054480;28;20465;-88
2024/02/17 05:42:46;;;;;;;14.80;5.80;;;12.00;98.00;;;;;;5053604;28;20475;-89
2024/02/17 05:45:13;;;;;;;11.87;5.70;;;11.90;98.00;;;;;;5054478;28;20488;-89
2024/02/17 05:47:40;;;;;;;13.87;6.67;;;11.80;98.00;;;;;;5053916;28;20443;-88
2024/02/17 05:50:08;;;;;;;15.50;6.83;;;11.80;98.00;;;;;;5054662;28;20920;-88
2024/02/17 05:52:38;;;;;;;16.10;6.73;;;11.80;98.00;;;;;;5053634;28;20571;-88
2024/02/17 05:55:06;;;;;;;14.67;6.90;;;11.80;98.00;;;;;;5054310;28;20832;-88
2024/02/17 05:57:33;;;;;;;16.60;7.70;;;11.80;98.00;;;;;;5054045;28;20515;-89
2024/02/17 06:00:00;;;;;;;18.20;7.90;;;11.80;98.00;;;;;;5054289;28;20856;-89
2024/02/17 06:02:27;;;;;;;22.00;7.77;;;11.70;98.00;;;;;;5055125;28;20476;-88
2024/02/17 06:04:55;;;;;;;15.60;7.40;;;11.60;98.00;;;;;;5070668;28;20451;-88
2024/02/17 06:07:26;;;;;;;19.63;8.50;;;11.70;98.00;;;;;;5075174;28;20446;-88
2024/02/17 06:09:54;;;;;;;22.70;9.10;;;11.60;98.00;;;;;;5054146;28;20509;-89
2024/02/17 06:12:22;;;;;;;20.43;8.27;;;11.50;98.00;;;;;;5053163;28;20674;-87
2024/02/17 06:14:49;;;;;;;21.40;8.40;;;11.50;98.00;;;;;;5053707;28;21045;-89
2024/02/17 06:17:22;;;;;;;20.20;8.07;;;11.40;98.00;;;;;;5053432;28;20458;-87
2024/02/17 06:22:35;;;;;;;22.73;8.67;;;11.40;98.00;;;;;;5053135;28;20476;-89
2024/02/17 06:25:04;;;;;;;20.20;8.77;;;11.60;98.00;;;;;;5053341;28;20474;-89
2024/02/17 06:27:31;;;;;;;18.73;8.63;;;11.50;98.00;;;;;;5053300;28;20450;-89
2024/02/17 06:29:58;;;;;;;23.17;9.30;;;11.50;98.00;;;;;;5053086;28;20459;-89
2024/02/17 06:32:25;;;;;;;24.53;9.13;;;11.40;98.00;;;;;;5052839;28;20458;-89
2024/02/17 06:34:52;;;;;;;22.37;9.20;;;11.50;98.00;;;;;;5053210;28;20496;-89
2024/02/17 06:37:19;;;;;;;21.30;9.10;;;11.60;98.00;;;;;;5053046;28;20432;-89
2024/02/17 06:39:46;;;;;;;22.70;8.83;;;11.60;98.00;;;;;;5052174;28;20449;-89
2024/02/17 06:42:17;;;;;;;21.17;8.80;;;11.70;98.00;;;;;;5052753;28;20467;-89
2024/02/17 06:44:44;;;;;;;22.67;9.10;;;11.70;98.00;;;;;;5053167;28;21014;-88
2024/02/17 06:47:11;;;;;;;20.87;8.60;;;11.50;98.00;;;;;;5052904;28;20461;-89
2024/02/17 06:49:38;;;;;;;20.27;8.50;;;11.50;98.00;;;;;;5053379;28;20464;-89
2024/02/17 06:52:05;;;;;;;19.60;8.03;;;11.50;98.00;;;;;;5052433;28;20466;-89
2024/02/17 06:54:32;;;;;;;27.07;9.33;;;11.40;98.00;;;;;;5052714;28;20491;-88
2024/02/17 06:57:01;;;;;;;19.30;7.97;;;11.40;98.00;;;;;;5052540;28;20449;-89
2024/02/17 06:59:29;;;;;;;19.70;8.97;;;11.30;98.00;;;;;;5053004;28;20913;-88
2024/02/17 07:01:56;;;;;;;21.10;8.30;;;11.30;98.00;;;;;;5052149;28;20467;-88
2024/02/17 07:04:23;;;;;;;25.30;9.60;;;11.40;98.00;;;;;;5052698;28;20489;-88
2024/02/17 07:06:50;;;;;;;19.57;7.87;;;11.30;98.00;;;;;;5052616;28;20451;-87
2024/02/17 07:09:20;;;;;;;21.97;8.50;;;11.30;98.00;;;;;;5052249;28;20444;-88
2024/02/17 07:11:48;;;;;;;20.37;8.53;;;11.40;98.00;;;;;;5051925;28;20471;-88
2024/02/17 07:14:15;;;;;;;20.03;8.70;;;11.40;98.00;;;;;;5052556;28;21002;-87
2024/02/17 07:16:43;;;;;;;22.60;9.10;;;11.40;98.00;;;;;;5052027;28;20528;-89
2024/02/17 07:19:10;;;;;;;22.47;8.67;;;11.30;98.00;;;;;;5051453;28;20446;-87
2024/02/17 07:21:37;;;;;;;20.90;8.67;;;11.50;98.00;;;;;;5051788;28;20438;-87
2024/02/17 07:24:04;;;;;;;22.03;8.20;;;11.40;98.00;;;;;;5052279;28;20459;-87
2024/02/17 07:26:31;;;;;;;32.80;8.30;;;11.30;98.00;;;;;;5052061;28;20485;-88
2024/02/17 07:28:58;;;;;;;22.37;8.70;;;11.20;98.00;;;;;;5052295;28;20449;-88
2024/02/17 07:31:29;;;;;;;16.27;7.90;;;11.20;98.00;;;;;;5051487;28;20455;-88
2024/02/17 07:33:57;;;;;;;21.63;8.80;;;11.30;98.00;;;;;;5052335;28;20447;-87
2024/02/17 07:36:25;;;;;;;20.57;8.30;;;11.50;98.00;;;;;;5052213;28;20841;-88
2024/02/17 07:38:52;;;;;;;16.20;7.90;;;11.60;98.00;;;;;;5052086;28;20450;-87
2024/02/17 07:41:19;;;;;;;18.50;8.50;;;11.70;98.00;;;;;;5051518;28;20447;-87
2024/02/17 07:43:46;;;;;;;20.70;8.27;;;11.70;98.00;;;;;;5051649;28;20812;-89
2024/02/17 07:46:13;;;;;;;22.13;8.47;;;11.60;98.00;;;;;;5051975;28;20534;-88
2024/02/17 07:48:42;;;;;;;21.90;8.93;;;11.60;98.00;;;;;;5052294;28;20807;-89
2024/02/17 07:51:10;;;;;;;21.30;8.00;;;11.70;98.00;;;;;;5051030;28;20462;-86
2024/02/17 07:53:38;;;;;;;24.93;9.37;;;11.70;98.00;;;;;;5052263;28;20451;-88
2024/02/17 07:56:05;;;;;;;20.70;9.07;;;11.80;98.00;;;;;;5051777;28;20529;-87
2024/02/17 07:58:32;;;;;;;21.07;8.60;;;11.80;98.00;;;;;;5051979;28;20452;-88
2024/02/17 08:01:00;;;;;;;22.70;8.70;;;11.80;98.00;;;;;;5051525;28;20521;-87
2024/02/17 08:03:27;;;;;;;22.67;8.00;;;12.00;98.00;;;;;;5051816;28;20515;-88
2024/02/17 08:05:54;;;;;;;22.60;8.60;;;11.90;98.00;;;;;;5051560;28;21191;-87
2024/02/17 08:08:24;;;;;;;19.40;8.10;;;11.80;98.00;;;;;;5052316;28;20448;-87
2024/02/17 08:10:51;;;;;;;19.30;8.17;;;11.70;98.00;;;;;;5052384;28;20455;-87
2024/02/17 08:13:21;;;;;;;20.73;9.10;;;11.60;98.00;;;;;;5051707;28;20467;-87
2024/02/17 08:15:48;;;;;;;18.10;8.10;;;11.60;98.00;;;;;;5051813;28;20495;-87
2024/02/17 08:18:15;;;;;;;19.70;8.67;;;11.60;98.00;;;;;;5051661;28;20457;-87
2024/02/17 08:20:42;;;;;;;21.37;8.20;;;11.70;98.00;;;;;;5052025;28;20462;-85
2024/02/17 08:23:10;;;;;;;20.10;8.90;;;11.80;98.00;;;;;;5049055;28;20470;-86
2024/02/17 08:25:39;;;;;;;19.07;8.00;;;11.80;98.00;;;;;;5053010;28;20472;-86
2024/02/17 08:28:06;;;;;;;22.50;8.10;;;11.90;98.00;;;;;;5044309;28;20563;-87
2024/02/17 08:30:34;;;;;;;21.60;8.20;;;12.00;98.00;;;;;;5061399;28;20482;-87
2024/02/17 08:35:28;;;;;;;21.47;8.40;;;12.00;98.00;;;;;;5052266;28;20485;-65
2024/02/17 08:37:56;;;;;;;26.90;8.00;;;12.00;98.00;;;;;;5062625;28;20513;-66
2024/02/17 08:40:24;;;;;;;18.33;6.83;;;11.90;98.00;;;;;;5073839;28;20821;-65
2024/02/17 08:42:53;;;;;;;19.00;7.97;;;11.90;98.00;;;;;;5064067;28;20453;-66
2024/02/17 08:45:20;;;;;;;20.60;8.00;;;11.90;98.00;;;;;;5064827;28;20473;-66
2024/02/17 08:47:47;;;;;;;18.67;8.47;;;12.00;98.00;;;;;;5045534;28;20456;-65
2024/02/17 08:50:14;;;;;;;19.97;7.90;;;12.00;98.00;;;;;;5044464;28;20452;-66
2024/02/17 08:52:41;;;;;;;16.90;8.33;;;12.00;98.00;;;;;;5036681;28;20445;-66
2024/02/17 08:55:09;;;;;;;20.80;9.23;;;12.10;98.00;;;;;;5016375;28;20494;-66
2024/02/17 08:57:36;;;;;;;19.40;8.00;;;12.10;98.00;;;;;;5033901;28;20448;-65
2024/02/17 09:00:06;;;;;;;19.07;8.13;;;12.10;98.00;;;;;;5033867;28;20461;-66
2024/02/17 09:02:33;;;;;;;19.70;8.10;;;12.10;98.00;;;;;;5033824;28;20541;-65
2024/02/17 09:05:00;;;;;;;14.27;7.10;;;12.10;98.00;;;;;;5033832;28;20857;-65
2024/02/17 09:07:29;;;;;;;16.10;7.00;;;12.10;98.00;;;;;;5040343;28;20449;-65
2024/02/17 09:09:56;;;;;;;13.93;6.80;;;12.10;98.00;;;;;;5045684;28;20459;-65
2024/02/17 09:12:23;;;;;;;17.20;7.53;;;12.10;98.00;;;;;;5032392;28;20459;-65
2024/02/17 09:14:50;;;;;;;19.07;7.10;;;12.30;98.00;;;;;;5042476;28;20488;-65
2024/02/17 09:20:02;;;;;;;21.07;8.63;;;12.40;98.00;;;;;;5040343;28;20523;-66
2024/02/17 09:22:29;;;;;;;15.93;7.37;;;12.50;98.00;;;;;;5058052;28;20452;-66
2024/02/17 09:24:57;;;;;;;18.60;7.23;;;12.40;98.00;;;;;;5053805;28;20456;-66
2024/02/17 09:27:25;;;;;;;18.33;7.10;;;12.40;98.00;;;;;;5053589;28;20487;-66
2024/02/17 09:29:52;;;;;;;19.13;7.27;;;12.50;98.00;;;;;;5053594;28;20464;-65
2024/02/17 09:32:21;;;;;;;17.40;7.00;;;12.50;98.00;;;;;;5053677;28;21040;-65
2024/02/17 09:34:48;;;;;;;15.90;7.23;;;12.50;98.00;;;;;;5053434;28;20976;-65
2024/02/17 09:37:15;;;;;;;18.47;7.67;;;12.50;98.00;;;;;;5053607;28;20953;-66
2024/02/17 09:39:42;;;;;;;17.80;7.43;;;12.70;98.00;;;;;;5049211;28;20469;-66
2024/02/17 09:42:09;;;;;;;17.00;7.60;;;12.90;98.00;;;;;;5015165;28;20923;-66
2024/02/17 09:44:37;;;;;;;16.10;7.30;;;12.80;98.00;;;;;;5033864;28;20469;-66
2024/02/17 09:47:05;;;;;;;23.10;8.93;;;13.00;98.00;;;;;;5033732;28;21087;-66
2024/02/17 09:49:36;;;;;;;19.07;9.00;;;13.00;98.00;;;;;;5033586;28;20457;-66
2024/02/17 09:52:05;;;;;;;26.70;9.53;;;13.00;98.00;;;;;;5033752;28;20489;-65
2024/02/17 09:54:33;;;;;;;20.83;8.60;;;13.10;98.00;;;;;;5033747;28;20450;-66
2024/02/17 09:57:01;;;;;;;17.73;7.30;;;13.00;98.00;;;;;;5033538;28;20487;-66
2024/02/17 09:59:28;;;;;;;20.07;7.90;;;13.00;98.00;;;;;;5016380;28;20490;-66
2024/02/17 10:01:55;;;;;;;21.23;8.30;;;12.80;98.00;;;;;;5033673;28;20943;-66
2024/02/17 10:04:22;;;;;;;17.67;7.90;;;12.90;98.00;;;;;;5016309;28;20803;-66
2024/02/17 10:07:00;;;;;;;17.90;7.47;;;12.70;98.00;;;;;;5033609;28;20465;-66
2024/02/17 10:09:28;;;;;;;18.40;8.13;;;12.60;98.00;;;;;;5033616;28;20479;-66
2024/02/17 10:11:55;;;;;;;19.00;8.70;;;12.90;98.00;;;;;;5033672;28;20494;-66
2024/02/17 10:14:24;;;;;;;19.37;8.40;;;12.80;98.00;;;;;;5033440;28;20464;-65
2024/02/17 10:16:58;;;;;;;20.90;8.17;;;12.70;98.00;;;;;;5033330;28;20495;-65
2024/02/17 10:19:25;;;;;;;20.87;9.00;;;12.60;98.00;;;;;;5015639;28;20540;-66
2024/02/17 10:21:54;;;;;;;17.80;8.03;;;12.60;98.00;;;;;;5033231;28;20469;-65
2024/02/17 10:24:22;;;;;;;20.00;8.93;;;12.60;98.00;;;;;;5016267;28;20475;-66
2024/02/17 10:26:52;;;;;;;20.57;8.60;;;12.60;98.00;;;;;;5033321;28;20447;-66
2024/02/17 10:29:22;;;;;;;21.80;8.30;;;12.80;98.00;;;;;;5033325;28;20512;-66
2024/02/17 10:31:49;;;;;;;23.40;8.10;;;12.80;98.00;;;;;;4999563;28;20503;-65
2024/02/17 10:34:16;;;;;;;17.40;7.60;;;12.70;98.00;;;;;;5033210;28;20468;-65
2024/02/17 10:36:44;;;;;;;18.03;8.03;;;12.70;98.00;;;;;;5032997;28;20483;-66
2024/02/17 10:39:12;;;;;;;16.53;7.57;;;12.90;98.00;;;;;;5032887;28;20939;-66
2024/02/17 10:41:41;;;;;;;13.97;7.33;;;13.10;98.00;;;;;;5032633;28;20889;-66
2024/02/17 10:44:08;;;;;;;15.83;7.50;;;13.30;98.00;;;;;;5032664;28;20938;-66
2024/02/17 10:46:36;;;;;;;13.73;6.67;;;13.50;98.00;;;;;;5032464;28;20510;-65
2024/02/17 10:49:09;;;;;;;17.80;7.87;;;13.60;98.00;;;;;;5032727;28;20457;-66
2024/02/17 10:51:41;;;;;;;17.47;7.40;;;13.50;98.00;;;;;;5032800;28;20462;-65
2024/02/17 10:54:12;;;;;;;16.63;7.20;;;13.30;98.00;;;;;;5031766;28;20461;-66
2024/02/17 10:56:41;;;;;;;15.27;6.53;;;13.40;98.00;;;;;;5031913;28;20922;-65
2024/02/17 10:59:10;;;;;;;14.93;7.33;;;13.50;98.00;;;;;;5031382;28;20457;-66
2024/02/17 11:01:38;;;;;;;13.40;6.63;;;13.40;98.00;;;;;;5031770;28;20456;-65
2024/02/17 11:04:06;;;;;;;12.67;6.50;;;13.30;98.00;;;;;;5032406;28;20472;-66
2024/02/17 11:06:34;;;;;;;19.43;7.17;;;13.20;98.00;;;;;;5032400;28;20466;-65
2024/02/17 11:09:02;;;;;;;19.00;7.70;;;13.20;98.00;;;;;;5032278;28;20482;-65
2024/02/17 11:11:33;;;;;;;14.73;6.50;;;13.20;98.00;;;;;;5032353;28;20457;-66
2024/02/17 11:14:41;;;;;;;17.50;7.43;;;13.50;98.00;;;;;;5014588;28;20463;-66
2024/02/17 11:17:10;;;;;;;14.67;6.90;;;13.90;98.00;;;;;;5031954;28;20484;-65
2024/02/17 11:19:38;;;;;;;14.73;6.43;;;14.30;98.00;;;;;;5032229;28;20796;-66
2024/02/17 11:22:06;;;;;;;13.90;6.83;;;14.60;98.00;;;;;;5032019;28;20543;-66
2024/02/17 11:24:38;;;;;;;16.00;7.10;;;14.90;98.00;;;;;;5032237;28;20533;-65
2024/02/17 11:27:06;;;;;;;15.27;6.83;;;15.20;98.00;;;;;;5032048;28;20944;-66
2024/02/17 11:29:36;;;;;;;14.00;6.50;;;15.20;98.00;;;;;;5032054;28;20454;-65
2024/02/17 11:32:04;;;;;;;16.10;6.53;;;15.40;98.00;;;;;;5031786;28;20451;-66
2024/02/17 11:34:34;;;;;;;15.50;6.97;;;15.60;98.00;;;;;;5031901;28;20968;-66
2024/02/17 11:37:05;;;;;;;15.90;7.03;;;16.00;98.00;;;;;;5031916;28;20501;-65
2024/02/17 11:39:34;;;;;;;12.67;6.40;;;16.40;98.00;;;;;;5032077;28;20461;-65
2024/02/17 11:42:02;;;;;;;16.13;6.93;;;16.50;98.00;;;;;;5031703;28;20963;-66
2024/02/17 11:44:29;;;;;;;13.07;6.33;;;16.50;98.00;;;;;;5031999;28;20454;-66
2024/02/17 11:46:57;;;;;;;15.80;6.77;;;16.20;98.00;;;;;;5031759;28;20457;-65
2024/02/17 11:49:26;;;;;;;14.70;6.67;;;15.90;98.00;;;;;;5031670;28;20835;-65
2024/02/17 11:51:53;;;;;;;14.20;6.10;;;15.40;98.00;;;;;;5031484;28;20490;-65
2024/02/17 11:54:20;;;;;;;15.70;6.60;;;14.90;98.00;;;;;;5031700;28;20446;-66
2024/02/17 11:56:48;;;;;;;11.23;6.10;;;14.60;98.00;;;;;;5031681;28;21014;-66
2024/02/17 11:59:16;;;;;;;11.77;5.53;;;14.60;98.00;;;;;;5031784;28;20516;-66
2024/02/17 12:01:43;;;;;;;10.87;5.93;;;14.60;98.00;;;;;;5031617;28;20508;-66
2024/02/17 12:04:12;;;;;;;12.97;6.20;;;15.00;98.00;;;;;;5031616;28;21117;-66
2024/02/17 12:06:39;;;;;;;12.90;6.27;;;15.30;98.00;;;;;;5036063;28;20453;-66
2024/02/17 12:09:08;;;;;;;12.30;6.50;;;15.90;98.00;;;;;;5018197;28;20448;-66
2024/02/17 12:11:35;;;;;;;16.27;6.57;;;16.50;98.00;;;;;;5035596;28;20938;-66
2024/02/17 12:14:03;;;;;;;15.37;6.23;;;16.90;98.00;;;;;;5035859;28;20533;-66
2024/02/17 12:16:30;;;;;;;13.43;6.13;;;17.30;98.00;;;;;;5018239;28;20529;-66
2024/02/17 12:18:58;;;;;;;12.03;5.83;;;17.60;98.00;;;;;;5035770;28;20936;-66
2024/02/17 12:21:26;;;;;;;15.40;6.60;;;17.80;98.00;;;;;;5035744;28;20454;-66
2024/02/17 12:23:55;;;;;;;14.50;7.40;;;18.00;98.00;;;;;;5035532;28;20516;-66
2024/02/17 12:26:23;;;;;;;15.90;6.97;;;18.20;98.00;;;;;;5018048;28;20458;-66
2024/02/17 12:28:50;;;;;;;13.67;6.87;;;18.40;98.00;;;;;;5035609;28;20846;-66
2024/02/17 12:31:18;;;;;;;14.30;6.40;;;18.60;98.00;;;;;;5035822;28;20532;-70
2024/02/17 12:33:47;;;;;;;9.53;5.47;;;18.90;98.00;;;;;;5035553;28;20490;-64
2024/02/17 12:36:17;;;;;;;13.10;5.53;;;19.20;98.00;;;;;;5035494;28;20871;-65
2024/02/17 12:38:45;;;;;;;6.70;4.30;;;19.70;98.00;;;;;;5035187;28;20516;-64
2024/02/17 12:41:15;;;;;;;12.10;4.87;;;20.00;98.00;;;;;;5034909;28;20459;-66
2024/02/17 12:43:47;;;;;;;9.53;4.80;;;20.30;98.00;;;;;;5035045;28;20455;-66
2024/02/17 12:46:23;;;;;;;8.70;5.10;;;20.30;98.00;;;;;;5035204;28;20512;-66
2024/02/17 12:48:51;;;;;;;7.47;4.80;;;20.40;98.00;;;;;;5017422;28;21109;-66
2024/02/17 12:51:20;;;;;;;8.87;4.43;;;20.40;98.00;;;;;;5034700;28;20454;-66